Terminal Aerodrome Forecast
Issued by NWS

Home | Current Version | Previous Version | Text Only | Print | Product List | Glossary On
Versions: 1 2 3 4 5 6 7 8 9 10 11 12 13 14 15 16 17 18 19
000
FTUS44 KBMX 040800 AAA
TAFEET
TAF AMD
KEET 040831Z 0409/0506 19007KT 6SM BR OVC006
     FM041600 21010KT 6SM BR OVC025
     FM050300 29010KT 5SM -SHRA OVC015=

USA.gov is the U.S. government's official web portal to all federal, state and local government web resources and services.